Time;durP1;ratioP1;P1;durP2;ratioP2;P2;SDS_P1;SDS_P2;PMS_P1;PMS_P2;Temp;Humidity;BMP_temperature;BMP_pressure;BME280_temperature;BME280_humidity;BME280_pressure;Samples;Min_cycle;Max_cycle;Signal;HPM_P1;HPM_P2
2023/08/26 00:00:20;;;;;;;9.60;8.80;;;21.80;51.90;;;;;;5036286;28;20211;-78
2023/08/26 00:02:46;;;;;;;9.27;8.70;;;21.90;52.10;;;;;;5036780;28;20172;-78
2023/08/26 00:05:11;;;;;;;9.20;8.60;;;21.80;51.20;;;;;;5036307;28;20180;-78
2023/08/26 00:07:37;;;;;;;9.47;8.83;;;21.60;51.80;;;;;;5036769;28;20196;-78
2023/08/26 00:10:03;;;;;;;9.80;9.03;;;21.60;52.60;;;;;;5035210;28;20203;-77
2023/08/26 00:12:28;;;;;;;9.00;8.50;;;21.60;51.80;;;;;;5036741;28;20173;-78
2023/08/26 00:14:54;;;;;;;8.70;8.20;;;21.50;51.30;;;;;;5036896;28;20421;-78
2023/08/26 00:17:19;;;;;;;9.77;9.17;;;21.50;51.00;;;;;;5036710;28;20215;-79
2023/08/26 00:19:45;;;;;;;9.57;9.03;;;21.50;50.80;;;;;;5037051;28;20173;-78
2023/08/26 00:22:11;;;;;;;9.50;8.80;;;21.50;50.20;;;;;;5036333;28;20183;-78
2023/08/26 00:24:36;;;;;;;9.17;8.47;;;21.50;51.70;;;;;;5036793;28;20169;-78
2023/08/26 00:27:03;;;;;;;8.50;8.00;;;21.50;50.20;;;;;;5036163;28;20775;-78
2023/08/26 00:29:29;;;;;;;9.50;8.63;;;21.50;51.00;;;;;;5036248;28;20188;-78
2023/08/26 00:31:54;;;;;;;9.27;8.57;;;21.50;51.30;;;;;;5036179;28;20414;-78
2023/08/26 00:34:20;;;;;;;9.40;8.70;;;21.40;51.70;;;;;;5036069;28;20212;-78
2023/08/26 00:36:45;;;;;;;9.60;8.80;;;21.40;51.70;;;;;;5035491;28;20550;-78
2023/08/26 00:39:11;;;;;;;9.53;8.73;;;21.40;51.70;;;;;;5035570;28;20185;-78
2023/08/26 00:41:36;;;;;;;9.27;8.77;;;21.40;52.60;;;;;;5035588;28;20205;-78
2023/08/26 00:44:02;;;;;;;9.77;8.97;;;21.40;52.70;;;;;;5035301;28;20208;-77
2023/08/26 00:46:29;;;;;;;8.03;7.50;;;21.40;53.30;;;;;;5036569;28;20542;-77
2023/08/26 00:48:54;;;;;;;8.20;7.70;;;21.40;53.80;;;;;;5036889;28;20191;-77
2023/08/26 00:51:20;;;;;;;8.77;8.17;;;21.40;53.10;;;;;;5037074;28;20411;-77
2023/08/26 00:53:48;;;;;;;8.40;7.90;;;21.40;53.70;;;;;;5036967;28;20165;-77
2023/08/26 00:56:14;;;;;;;9.13;8.40;;;21.40;54.60;;;;;;5037030;28;21000;-77
2023/08/26 00:58:40;;;;;;;8.90;8.20;;;21.40;53.10;;;;;;5036517;28;20439;-78
2023/08/26 01:01:06;;;;;;;8.60;8.03;;;21.40;53.20;;;;;;5036705;28;20946;-78
2023/08/26 01:03:31;;;;;;;8.03;7.40;;;21.40;52.20;;;;;;5036608;28;20465;-77
2023/08/26 01:05:57;;;;;;;7.90;7.43;;;21.50;53.60;;;;;;5036835;28;20635;-77
2023/08/26 01:08:23;;;;;;;8.33;7.90;;;21.40;52.90;;;;;;5036246;28;20183;-76
2023/08/26 01:10:58;;;;;;;7.83;7.33;;;21.40;53.70;;;;;;5036522;28;20272;-77
2023/08/26 01:13:35;;;;;;;8.50;8.00;;;21.30;52.70;;;;;;5036412;28;20403;-77
2023/08/26 01:16:02;;;;;;;8.50;7.90;;;21.30;53.40;;;;;;5036892;28;20971;-77
2023/08/26 01:18:28;;;;;;;8.47;7.77;;;21.30;53.70;;;;;;5036230;28;20937;-77
2023/08/26 01:20:55;;;;;;;8.30;7.70;;;21.20;54.10;;;;;;5035596;28;20458;-78
2023/08/26 01:23:34;;;;;;;7.73;7.20;;;21.30;55.00;;;;;;5036316;28;20469;-78
2023/08/26 01:26:00;;;;;;;8.03;7.40;;;21.20;56.00;;;;;;5034764;28;20418;-78
2023/08/26 01:28:26;;;;;;;10.67;8.43;;;21.10;56.50;;;;;;5034744;28;20519;-78
2023/08/26 01:30:52;;;;;;;10.30;8.00;;;21.00;60.10;;;;;;5036152;28;20483;-78
2023/08/26 01:33:22;;;;;;;8.00;7.30;;;20.90;61.40;;;;;;5035543;28;20256;-77
2023/08/26 01:35:54;;;;;;;7.17;6.57;;;20.70;64.10;;;;;;5035413;28;20807;-77
2023/08/26 01:38:20;;;;;;;7.40;6.90;;;20.60;65.10;;;;;;5035326;28;20396;-77
2023/08/26 01:40:53;;;;;;;6.63;6.07;;;20.70;66.40;;;;;;5035523;28;20408;-78
2023/08/26 01:43:20;;;;;;;8.37;6.57;;;20.80;66.20;;;;;;5035119;28;20483;-77
2023/08/26 01:45:46;;;;;;;6.10;5.60;;;20.90;64.90;;;;;;5034942;28;20414;-77
2023/08/26 01:48:11;;;;;;;6.73;6.00;;;21.00;64.20;;;;;;5034744;28;20439;-77
2023/08/26 01:50:37;;;;;;;6.00;5.60;;;21.10;63.40;;;;;;5035102;28;20571;-77
2023/08/26 01:53:02;;;;;;;7.47;5.90;;;21.20;62.70;;;;;;5034894;28;20168;-77
2023/08/26 01:55:28;;;;;;;6.37;5.97;;;21.30;61.50;;;;;;5032000;28;20187;-77
2023/08/26 01:57:53;;;;;;;6.87;6.23;;;21.40;61.20;;;;;;5033210;28;20223;-77
2023/08/26 02:00:19;;;;;;;6.53;6.13;;;21.50;60.60;;;;;;5035089;28;20173;-77
2023/08/26 02:02:44;;;;;;;6.47;5.97;;;21.60;59.10;;;;;;5034984;28;20222;-77
2023/08/26 02:05:10;;;;;;;6.50;5.87;;;21.70;58.50;;;;;;5034834;28;20192;-77
2023/08/26 02:07:36;;;;;;;6.30;5.90;;;21.80;57.80;;;;;;5034333;28;20283;-77
2023/08/26 02:10:01;;;;;;;6.43;5.93;;;21.90;57.00;;;;;;5034198;28;20287;-77
2023/08/26 02:12:28;;;;;;;5.50;5.20;;;21.90;55.90;;;;;;5035058;28;20231;-77
2023/08/26 02:14:53;;;;;;;7.10;6.50;;;21.90;54.00;;;;;;5034185;28;20176;-77
2023/08/26 02:17:19;;;;;;;6.97;6.57;;;21.90;53.40;;;;;;5034013;28;20532;-77
2023/08/26 02:19:44;;;;;;;6.20;5.97;;;21.90;53.90;;;;;;5034206;28;20176;-77
2023/08/26 02:22:10;;;;;;;6.53;6.23;;;21.80;53.70;;;;;;5034322;28;20199;-77
2023/08/26 02:24:35;;;;;;;6.70;6.30;;;21.90;52.80;;;;;;5034054;28;20176;-77
2023/08/26 02:27:01;;;;;;;6.40;6.13;;;21.90;52.10;;;;;;5034687;28;20222;-77
2023/08/26 02:29:26;;;;;;;6.87;6.47;;;21.90;52.10;;;;;;5032702;28;20670;-77
2023/08/26 02:31:51;;;;;;;7.07;6.40;;;22.00;51.30;;;;;;5034006;28;20177;-77
2023/08/26 02:34:17;;;;;;;6.87;6.33;;;22.00;50.90;;;;;;5034725;28;20179;-77
2023/08/26 02:36:42;;;;;;;7.67;7.17;;;22.00;50.50;;;;;;5035128;28;20744;-78
2023/08/26 02:39:08;;;;;;;6.60;6.13;;;22.00;50.50;;;;;;5034474;28;20180;-77
2023/08/26 02:41:33;;;;;;;7.40;7.00;;;22.10;50.40;;;;;;5034879;28;20173;-77
2023/08/26 02:44:00;;;;;;;6.50;6.10;;;22.10;50.90;;;;;;5034648;28;20219;-78
2023/08/26 02:46:25;;;;;;;7.33;6.90;;;22.10;50.80;;;;;;5034425;28;20197;-77
2023/08/26 02:48:51;;;;;;;7.40;6.90;;;22.10;50.50;;;;;;5033772;28;20419;-78
2023/08/26 02:51:16;;;;;;;6.70;6.40;;;22.10;50.20;;;;;;5034801;28;20685;-78
2023/08/26 02:53:42;;;;;;;6.70;6.40;;;22.10;49.40;;;;;;5034320;28;20256;-78
2023/08/26 02:56:07;;;;;;;6.70;6.40;;;22.10;49.30;;;;;;5034282;28;20236;-78
2023/08/26 02:58:33;;;;;;;6.77;6.47;;;22.10;49.50;;;;;;5034348;28;20168;-78
2023/08/26 03:01:01;;;;;;;7.30;6.90;;;22.00;49.10;;;;;;5034374;28;20172;-78
2023/08/26 03:03:27;;;;;;;7.80;7.20;;;22.00;49.00;;;;;;5032983;28;20181;-77
2023/08/26 03:05:59;;;;;;;8.13;7.67;;;22.10;48.60;;;;;;5034567;28;20426;-78
2023/08/26 03:08:25;;;;;;;8.00;7.60;;;22.10;48.70;;;;;;5034608;28;20231;-78
2023/08/26 03:11:03;;;;;;;7.30;6.80;;;22.10;48.80;;;;;;5034194;28;20463;-78
2023/08/26 03:13:28;;;;;;;7.77;7.30;;;22.00;49.00;;;;;;5034352;28;20199;-78
2023/08/26 03:15:54;;;;;;;7.10;6.70;;;22.10;49.40;;;;;;5034406;28;20411;-78
2023/08/26 03:18:20;;;;;;;7.67;7.27;;;22.00;49.40;;;;;;5032852;28;20501;-78
2023/08/26 03:20:45;;;;;;;7.43;7.03;;;22.00;50.00;;;;;;5034328;28;20173;-78
2023/08/26 03:23:11;;;;;;;8.27;7.70;;;22.00;49.70;;;;;;5033160;28;20177;-78
2023/08/26 03:25:38;;;;;;;6.90;6.50;;;21.80;50.70;;;;;;5034108;28;20616;-77
2023/08/26 03:28:03;;;;;;;7.23;6.90;;;21.70;51.40;;;;;;5034172;28;20666;-78
2023/08/26 03:30:29;;;;;;;7.40;7.00;;;21.80;52.00;;;;;;5034026;28;20479;-78
2023/08/26 03:32:55;;;;;;;7.93;7.20;;;21.80;52.00;;;;;;5034254;28;20237;-77
2023/08/26 03:35:20;;;;;;;7.10;6.60;;;21.90;51.30;;;;;;5033284;28;20274;-77
2023/08/26 03:37:46;;;;;;;7.10;6.70;;;21.90;51.10;;;;;;5034558;28;20262;-78
2023/08/26 03:40:11;;;;;;;7.37;6.83;;;21.90;50.80;;;;;;5034379;28;20200;-78
2023/08/26 03:42:38;;;;;;;8.30;7.70;;;21.90;50.20;;;;;;5033966;28;20222;-78
2023/08/26 03:45:04;;;;;;;7.83;7.43;;;21.80;50.00;;;;;;5033965;28;20191;-78
2023/08/26 03:47:30;;;;;;;7.10;6.80;;;21.80;50.80;;;;;;5032927;28;20443;-78
2023/08/26 03:49:56;;;;;;;7.63;7.33;;;21.80;50.80;;;;;;5034018;28;20450;-78
2023/08/26 03:52:22;;;;;;;7.87;7.40;;;21.80;51.00;;;;;;5034268;28;20766;-78
2023/08/26 03:54:47;;;;;;;8.57;7.97;;;21.90;50.30;;;;;;5033597;28;20195;-77
2023/08/26 03:57:13;;;;;;;8.20;7.60;;;21.70;49.60;;;;;;5033976;28;20195;-77
2023/08/26 03:59:38;;;;;;;7.70;7.30;;;21.60;51.10;;;;;;5033723;28;20592;-77
2023/08/26 04:02:04;;;;;;;8.87;8.13;;;21.70;50.00;;;;;;5033840;28;20668;-78
2023/08/26 04:04:31;;;;;;;7.60;7.10;;;21.80;49.40;;;;;;5036289;28;20199;-78
2023/08/26 04:06:57;;;;;;;8.50;8.10;;;21.80;48.50;;;;;;5037186;28;20188;-77
2023/08/26 04:09:23;;;;;;;8.97;8.27;;;21.60;50.30;;;;;;5035870;28;20458;-77
2023/08/26 04:11:49;;;;;;;9.43;8.70;;;21.40;51.20;;;;;;5034555;28;20882;-77
2023/08/26 04:14:14;;;;;;;8.77;8.23;;;21.20;51.50;;;;;;5033529;28;20443;-77
2023/08/26 04:16:40;;;;;;;7.90;7.57;;;21.10;52.20;;;;;;5032008;28;20497;-77
2023/08/26 04:19:06;;;;;;;8.63;8.07;;;21.00;52.00;;;;;;5036077;28;20196;-77
2023/08/26 04:21:31;;;;;;;8.47;7.87;;;20.90;53.10;;;;;;5037000;28;20682;-77
2023/08/26 04:23:57;;;;;;;8.57;8.07;;;20.90;53.10;;;;;;5036934;28;20627;-78
2023/08/26 04:26:23;;;;;;;8.87;8.27;;;20.90;52.40;;;;;;5037021;28;20192;-77
2023/08/26 04:28:49;;;;;;;9.53;8.60;;;20.80;52.20;;;;;;5037043;28;20169;-77
2023/08/26 04:31:14;;;;;;;8.67;8.03;;;20.80;52.40;;;;;;5037278;28;20617;-78
2023/08/26 04:33:40;;;;;;;9.00;8.40;;;20.70;52.00;;;;;;5037151;28;20554;-78
2023/08/26 04:36:06;;;;;;;8.10;7.70;;;20.70;51.40;;;;;;5036145;28;20172;-77
2023/08/26 04:38:32;;;;;;;8.43;7.93;;;20.70;51.10;;;;;;5038537;28;20408;-78
2023/08/26 04:40:58;;;;;;;8.83;8.10;;;20.70;51.10;;;;;;5035794;28;20415;-77
2023/08/26 04:43:25;;;;;;;9.07;8.33;;;20.70;50.40;;;;;;5035232;28;20173;-77
2023/08/26 04:45:52;;;;;;;8.83;8.03;;;20.80;49.90;;;;;;5035859;28;20662;-77
2023/08/26 04:48:18;;;;;;;8.70;8.00;;;20.90;50.20;;;;;;5035570;28;20411;-77
2023/08/26 04:50:44;;;;;;;9.10;8.50;;;21.00;49.10;;;;;;5035259;28;20975;-77
2023/08/26 04:53:10;;;;;;;9.30;8.70;;;21.00;50.10;;;;;;5036158;28;20173;-78
2023/08/26 04:55:36;;;;;;;8.80;8.30;;;21.00;49.80;;;;;;5035104;28;20180;-78
2023/08/26 04:58:02;;;;;;;9.20;8.60;;;21.10;50.10;;;;;;5037132;28;20554;-78
2023/08/26 05:00:28;;;;;;;9.10;8.60;;;21.20;49.10;;;;;;5038305;28;20510;-78
2023/08/26 05:02:54;;;;;;;8.63;8.13;;;21.30;48.20;;;;;;5038458;28;20880;-78
2023/08/26 05:05:19;;;;;;;9.10;8.67;;;21.20;47.60;;;;;;5037782;28;20553;-78
2023/08/26 05:07:45;;;;;;;10.13;9.30;;;21.10;48.20;;;;;;5035862;28;20642;-77
2023/08/26 05:10:10;;;;;;;8.63;7.93;;;21.00;48.50;;;;;;5036036;28;20598;-77
2023/08/26 05:12:36;;;;;;;10.33;9.57;;;20.90;48.40;;;;;;5036590;28;20176;-77
2023/08/26 05:15:04;;;;;;;9.73;8.83;;;20.80;49.40;;;;;;5037783;28;20634;-79
2023/08/26 05:17:29;;;;;;;9.87;9.07;;;20.70;49.50;;;;;;5036917;28;20204;-78
2023/08/26 05:19:55;;;;;;;10.00;8.97;;;20.70;49.40;;;;;;5037318;28;20419;-78
2023/08/26 05:22:21;;;;;;;9.60;8.57;;;20.70;49.40;;;;;;5037593;28;20207;-78
2023/08/26 05:24:47;;;;;;;11.13;10.13;;;20.70;49.10;;;;;;5037040;28;20168;-78
2023/08/26 05:27:15;;;;;;;10.67;9.50;;;20.70;49.30;;;;;;5036458;28;20670;-78
2023/08/26 05:29:41;;;;;;;9.97;9.17;;;20.70;48.10;;;;;;5035654;28;20450;-77
2023/08/26 05:32:06;;;;;;;9.23;8.73;;;20.70;47.20;;;;;;5036309;28;20511;-78
2023/08/26 05:34:32;;;;;;;8.93;8.30;;;20.70;46.50;;;;;;5037418;28;20630;-78
2023/08/26 05:36:58;;;;;;;9.10;8.60;;;20.70;46.60;;;;;;5037551;28;20199;-78
2023/08/26 05:39:23;;;;;;;8.47;7.93;;;20.70;48.00;;;;;;5039259;28;20191;-78
2023/08/26 05:41:49;;;;;;;9.13;8.30;;;20.80;47.20;;;;;;5037964;28;20226;-78
2023/08/26 05:44:14;;;;;;;8.73;8.17;;;21.00;47.00;;;;;;5037333;28;20185;-77
2023/08/26 05:46:40;;;;;;;8.80;8.30;;;21.10;45.70;;;;;;5036198;28;20569;-77
2023/08/26 05:49:05;;;;;;;7.93;7.47;;;21.30;45.30;;;;;;5036839;28;20211;-77
2023/08/26 05:51:31;;;;;;;8.50;8.00;;;21.30;42.80;;;;;;5032880;28;20181;-78
2023/08/26 05:53:57;;;;;;;9.97;9.20;;;21.30;42.80;;;;;;5036317;28;20180;-78
2023/08/26 05:56:22;;;;;;;9.53;8.90;;;21.10;42.30;;;;;;5036832;28;20197;-78
2023/08/26 05:58:48;;;;;;;9.50;8.90;;;21.10;43.70;;;;;;5036315;28;20173;-78
2023/08/26 06:01:13;;;;;;;8.97;8.37;;;21.10;44.40;;;;;;5037012;28;20192;-78
2023/08/26 06:03:39;;;;;;;10.20;9.33;;;21.20;43.60;;;;;;5036660;28;20173;-78
2023/08/26 06:06:05;;;;;;;8.43;8.03;;;21.30;41.50;;;;;;5037499;28;20180;-78
2023/08/26 06:08:31;;;;;;;10.17;9.30;;;21.40;41.60;;;;;;5036526;28;20184;-77
2023/08/26 06:10:57;;;;;;;11.03;10.23;;;21.30;41.50;;;;;;5037524;28;20459;-78
2023/08/26 06:13:23;;;;;;;11.60;10.90;;;21.20;41.30;;;;;;5036809;28;20181;-78
2023/08/26 06:15:58;;;;;;;9.10;8.60;;;21.20;41.70;;;;;;5036435;28;20220;-78
2023/08/26 06:18:23;;;;;;;8.93;8.43;;;21.30;42.90;;;;;;5036534;28;20431;-78
2023/08/26 06:20:50;;;;;;;9.47;8.77;;;21.30;43.80;;;;;;5035667;28;20445;-78
2023/08/26 06:23:16;;;;;;;10.07;9.30;;;21.40;41.50;;;;;;5035733;28;20184;-78
2023/08/26 06:25:56;;;;;;;10.40;9.70;;;21.20;41.40;;;;;;5036884;28;20441;-79
2023/08/26 06:28:23;;;;;;;9.10;8.57;;;21.30;42.70;;;;;;5035639;28;20423;-77
2023/08/26 06:30:49;;;;;;;9.87;9.13;;;21.30;41.70;;;;;;5038018;28;20557;-78
2023/08/26 06:33:15;;;;;;;9.70;9.00;;;21.40;41.50;;;;;;5038585;28;20422;-79
2023/08/26 06:35:46;;;;;;;9.07;8.47;;;21.40;41.50;;;;;;5037683;28;20446;-79
2023/08/26 06:38:11;;;;;;;9.17;8.67;;;21.40;41.60;;;;;;5039220;28;20431;-79
2023/08/26 06:40:37;;;;;;;9.93;9.23;;;21.30;41.50;;;;;;5038013;28;20419;-79
2023/08/26 06:43:03;;;;;;;10.43;9.83;;;21.30;41.40;;;;;;5036639;28;20181;-79
2023/08/26 06:45:30;;;;;;;10.30;9.50;;;21.40;42.60;;;;;;5037626;28;20172;-79
2023/08/26 06:47:55;;;;;;;9.53;8.80;;;21.40;40.90;;;;;;5037285;28;20463;-79
2023/08/26 06:50:22;;;;;;;9.17;8.57;;;21.30;41.40;;;;;;5037866;28;20489;-78
2023/08/26 06:52:49;;;;;;;10.33;9.60;;;21.30;41.10;;;;;;5037488;28;20639;-79
2023/08/26 06:55:15;;;;;;;9.40;8.70;;;21.30;40.30;;;;;;5036563;28;20945;-79
2023/08/26 06:57:41;;;;;;;9.57;8.87;;;21.30;40.50;;;;;;5036141;28;20443;-79
2023/08/26 07:00:08;;;;;;;9.70;9.17;;;21.30;40.60;;;;;;5037470;28;20415;-79
2023/08/26 07:02:34;;;;;;;9.00;8.40;;;21.40;42.70;;;;;;5038012;28;20169;-79
2023/08/26 07:05:00;;;;;;;9.27;8.30;;;21.60;43.10;;;;;;5036982;28;20411;-80
2023/08/26 07:07:25;;;;;;;8.40;7.80;;;21.60;42.30;;;;;;5037625;28;20849;-79
2023/08/26 07:09:51;;;;;;;9.37;8.77;;;21.70;41.80;;;;;;5036011;28;20577;-79
2023/08/26 07:12:16;;;;;;;9.53;8.20;;;21.80;41.90;;;;;;5037365;28;20556;-80
2023/08/26 07:14:42;;;;;;;10.60;8.47;;;21.80;41.90;;;;;;5036999;28;20169;-80
2023/08/26 07:17:07;;;;;;;8.60;7.90;;;21.90;42.00;;;;;;5036421;28;20607;-80
2023/08/26 07:19:33;;;;;;;8.90;8.40;;;21.90;39.60;;;;;;5036538;28;20180;-79
2023/08/26 07:21:58;;;;;;;9.33;8.80;;;21.70;37.00;;;;;;5037478;28;20173;-80
2023/08/26 07:24:24;;;;;;;10.30;9.60;;;21.60;37.60;;;;;;5037764;28;20187;-79
2023/08/26 07:26:50;;;;;;;9.20;8.60;;;21.60;39.10;;;;;;5037488;28;20196;-80
2023/08/26 07:29:15;;;;;;;9.50;8.80;;;21.70;40.70;;;;;;5036330;28;20211;-80
2023/08/26 07:31:41;;;;;;;9.60;9.00;;;21.80;41.90;;;;;;5037134;28;20646;-79
2023/08/26 07:34:06;;;;;;;9.60;8.93;;;21.90;42.00;;;;;;5036832;28;20252;-81
2023/08/26 07:36:32;;;;;;;9.00;8.40;;;22.00;40.80;;;;;;5037280;28;20748;-80
2023/08/26 07:38:59;;;;;;;8.83;8.20;;;22.10;40.20;;;;;;5044096;28;20207;-80
2023/08/26 07:41:24;;;;;;;9.70;8.90;;;22.10;39.80;;;;;;5049979;28;20173;-79
2023/08/26 07:43:50;;;;;;;22.30;18.87;;;22.20;38.30;;;;;;5050957;28;20422;-80
2023/08/26 07:46:18;;;;;;;9.27;8.67;;;22.20;38.70;;;;;;5050885;28;20205;-78
2023/08/26 07:48:44;;;;;;;10.10;9.40;;;22.20;37.60;;;;;;5046839;28;20212;-78
2023/08/26 07:51:10;;;;;;;8.37;7.87;;;22.10;38.00;;;;;;5045748;28;20489;-78
2023/08/26 07:53:35;;;;;;;9.17;8.50;;;22.20;38.70;;;;;;5045457;28;20251;-78
2023/08/26 07:56:01;;;;;;;8.50;7.80;;;22.10;38.70;;;;;;5042971;28;20638;-78
2023/08/26 07:58:26;;;;;;;7.87;7.30;;;22.20;38.20;;;;;;5031455;28;20184;-79
2023/08/26 08:00:52;;;;;;;9.03;8.33;;;22.20;38.00;;;;;;5031554;28;20177;-79
2023/08/26 08:03:17;;;;;;;12.83;11.70;;;22.20;37.70;;;;;;5038655;28;20187;-79
2023/08/26 08:05:43;;;;;;;9.10;8.40;;;22.20;37.70;;;;;;5040073;28;20207;-79
2023/08/26 08:08:08;;;;;;;8.50;8.00;;;22.30;36.00;;;;;;5042002;28;20210;-79
2023/08/26 08:10:34;;;;;;;9.30;8.50;;;22.30;35.20;;;;;;5041721;28;20215;-79
2023/08/26 08:12:59;;;;;;;8.93;8.23;;;22.30;36.00;;;;;;5041907;28;20173;-79
2023/08/26 08:15:26;;;;;;;9.73;9.10;;;22.30;35.10;;;;;;5041738;28;20172;-79
2023/08/26 08:17:51;;;;;;;8.87;8.17;;;22.30;34.80;;;;;;5041845;28;20227;-78
2023/08/26 08:20:19;;;;;;;9.43;8.80;;;22.30;34.80;;;;;;5040011;28;20410;-79
2023/08/26 08:22:45;;;;;;;9.30;8.37;;;22.30;34.80;;;;;;5041211;28;20173;-79
2023/08/26 08:25:11;;;;;;;9.50;8.60;;;22.30;34.00;;;;;;5039480;28;20498;-79
2023/08/26 08:27:38;;;;;;;9.00;8.50;;;22.30;34.50;;;;;;5039613;28;20220;-79
2023/08/26 08:30:05;;;;;;;8.40;7.93;;;22.30;33.30;;;;;;5041016;28;20200;-79
2023/08/26 08:32:32;;;;;;;8.40;7.90;;;22.20;33.50;;;;;;5039235;28;20463;-78
2023/08/26 08:34:58;;;;;;;9.80;9.00;;;22.20;33.30;;;;;;5040842;28;20884;-78
2023/08/26 08:37:24;;;;;;;7.43;7.03;;;22.10;33.50;;;;;;5038805;28;20427;-78
2023/08/26 08:39:49;;;;;;;8.20;7.70;;;22.10;33.70;;;;;;5036822;28;20778;-78
2023/08/26 08:42:16;;;;;;;9.17;8.57;;;22.10;33.90;;;;;;5036381;28;20707;-79
2023/08/26 08:44:43;;;;;;;9.10;8.50;;;22.10;33.80;;;;;;5035095;28;20183;-79
2023/08/26 08:47:09;;;;;;;9.67;8.90;;;22.00;34.00;;;;;;5034051;28;20435;-79
2023/08/26 08:49:36;;;;;;;10.73;9.80;;;22.00;34.30;;;;;;5033676;28;20549;-77
2023/08/26 08:52:05;;;;;;;8.40;8.00;;;22.00;33.10;;;;;;5032820;28;20416;-78
2023/08/26 08:54:32;;;;;;;8.00;7.60;;;22.00;33.50;;;;;;5027639;28;20411;-78
2023/08/26 08:56:58;;;;;;;9.03;8.47;;;22.10;34.20;;;;;;5027380;28;20750;-78
2023/08/26 08:59:27;;;;;;;9.50;8.77;;;22.10;33.70;;;;;;5027314;28;20420;-78
2023/08/26 09:01:58;;;;;;;8.27;7.43;;;22.00;33.10;;;;;;5023749;28;20420;-78
2023/08/26 09:04:26;;;;;;;10.90;9.50;;;22.00;33.20;;;;;;5028537;28;20455;-78
2023/08/26 09:06:53;;;;;;;11.27;7.87;;;22.00;33.20;;;;;;5028046;28;20427;-78
2023/08/26 09:09:20;;;;;;;9.10;8.40;;;22.10;32.60;;;;;;5026480;28;20426;-78
2023/08/26 09:11:46;;;;;;;8.60;7.97;;;22.10;33.20;;;;;;5025718;28;20993;-78
2023/08/26 09:14:12;;;;;;;8.67;7.87;;;22.10;33.40;;;;;;5026078;28;20419;-78
2023/08/26 09:16:40;;;;;;;7.93;7.43;;;22.20;33.30;;;;;;5028564;28;20432;-78
2023/08/26 09:19:06;;;;;;;7.90;7.33;;;22.20;33.00;;;;;;5026365;28;20160;-78
2023/08/26 09:21:32;;;;;;;8.57;7.80;;;22.30;32.50;;;;;;5017831;28;20404;-78
2023/08/26 09:23:59;;;;;;;7.97;7.57;;;22.30;31.90;;;;;;5017525;28;20411;-78
2023/08/26 09:26:24;;;;;;;8.00;7.40;;;22.40;32.00;;;;;;5017637;28;20197;-78
2023/08/26 09:28:51;;;;;;;9.70;8.93;;;22.30;31.90;;;;;;5017697;28;20799;-78
2023/08/26 09:31:17;;;;;;;8.77;8.07;;;22.30;33.10;;;;;;5016851;28;20636;-78
2023/08/26 09:33:47;;;;;;;8.87;8.13;;;22.30;33.20;;;;;;5027962;28;20412;-78
2023/08/26 09:36:13;;;;;;;7.80;7.30;;;22.40;33.20;;;;;;5036920;28;20799;-78
2023/08/26 09:38:52;;;;;;;8.03;7.47;;;22.40;32.80;;;;;;5036389;28;20408;-78
2023/08/26 09:41:22;;;;;;;8.27;7.70;;;22.50;32.60;;;;;;5034234;28;20598;-76
2023/08/26 09:43:48;;;;;;;8.37;7.87;;;22.40;32.10;;;;;;5033900;28;20412;-76
2023/08/26 09:46:20;;;;;;;7.93;7.53;;;22.40;32.00;;;;;;5033844;28;20492;-76
2023/08/26 09:48:50;;;;;;;9.90;8.40;;;22.40;32.00;;;;;;5033399;28;20165;-76
2023/08/26 09:51:29;;;;;;;11.43;8.13;;;22.40;32.00;;;;;;5033850;28;20470;-76
2023/08/26 09:53:55;;;;;;;7.27;6.87;;;22.40;32.60;;;;;;5032604;28;20883;-76
2023/08/26 09:56:23;;;;;;;8.50;7.90;;;22.40;33.00;;;;;;5032310;28;20565;-77
2023/08/26 09:58:49;;;;;;;8.70;8.10;;;22.40;33.50;;;;;;5033473;28;20650;-76
2023/08/26 10:01:17;;;;;;;9.93;9.03;;;22.30;33.70;;;;;;5032908;28;20490;-77
2023/08/26 10:03:46;;;;;;;8.37;7.77;;;22.30;33.30;;;;;;5033650;28;20172;-76
2023/08/26 10:06:13;;;;;;;9.57;8.60;;;22.30;33.70;;;;;;5033477;28;20553;-75
2023/08/26 10:08:41;;;;;;;9.30;8.67;;;22.20;33.70;;;;;;5033110;28;20913;-76
2023/08/26 10:11:08;;;;;;;7.97;7.50;;;22.20;34.00;;;;;;5033334;28;20870;-76
2023/08/26 10:13:36;;;;;;;8.00;7.50;;;22.10;33.60;;;;;;5033449;28;20470;-77
2023/08/26 10:16:04;;;;;;;8.23;7.60;;;22.10;33.60;;;;;;5032187;28;20408;-77
2023/08/26 10:18:43;;;;;;;8.93;8.43;;;22.10;34.20;;;;;;5033065;28;20435;-77
2023/08/26 10:21:12;;;;;;;8.47;7.77;;;22.10;34.50;;;;;;5033328;28;20415;-76
2023/08/26 10:23:39;;;;;;;8.37;7.60;;;22.00;33.40;;;;;;5033052;28;20411;-77
2023/08/26 10:26:08;;;;;;;7.80;7.40;;;22.00;32.60;;;;;;5032558;28;20407;-76
2023/08/26 10:28:35;;;;;;;9.13;8.53;;;22.00;33.20;;;;;;5032991;28;20514;-76
2023/08/26 10:31:09;;;;;;;9.43;8.73;;;22.00;33.10;;;;;;5033083;28;20458;-76
2023/08/26 10:34:06;;;;;;;13.10;7.80;;;22.00;32.80;;;;;;5033068;28;20595;-76
2023/08/26 10:36:34;;;;;;;9.07;8.37;;;22.10;32.20;;;;;;5032815;28;20429;-76
2023/08/26 10:39:00;;;;;;;9.23;8.60;;;22.00;32.30;;;;;;5032729;28;20412;-76
2023/08/26 10:41:26;;;;;;;8.70;7.87;;;22.10;32.60;;;;;;5032826;28;20937;-76
2023/08/26 10:43:57;;;;;;;8.27;7.63;;;22.10;32.70;;;;;;5032904;28;20196;-76
2023/08/26 10:46:33;;;;;;;7.97;7.30;;;22.10;32.60;;;;;;5032919;28;20978;-76
2023/08/26 10:48:59;;;;;;;8.97;8.13;;;22.10;32.20;;;;;;5032787;28;20407;-76
2023/08/26 10:51:25;;;;;;;8.87;8.33;;;22.20;32.40;;;;;;5018382;28;20466;-76
2023/08/26 10:53:51;;;;;;;8.40;7.90;;;22.20;32.10;;;;;;5013245;28;20408;-77
2023/08/26 10:56:18;;;;;;;10.13;9.23;;;22.30;31.70;;;;;;5015778;28;20831;-75
2023/08/26 10:58:46;;;;;;;9.33;8.70;;;22.30;31.90;;;;;;5017314;28;20181;-75
2023/08/26 11:01:12;;;;;;;10.47;9.37;;;22.20;31.80;;;;;;5016096;28;20417;-76
2023/08/26 11:03:38;;;;;;;8.40;8.00;;;22.10;32.40;;;;;;5017482;28;20408;-76
2023/08/26 11:06:05;;;;;;;8.33;7.77;;;22.10;33.20;;;;;;5014398;28;20420;-76
2023/08/26 11:08:32;;;;;;;8.53;7.97;;;22.20;32.80;;;;;;5012321;28;20184;-76
2023/08/26 11:10:58;;;;;;;8.20;7.60;;;22.20;31.10;;;;;;5012504;28;20936;-76
2023/08/26 11:13:23;;;;;;;8.63;7.93;;;22.20;31.80;;;;;;5012445;28;20500;-76
2023/08/26 11:15:50;;;;;;;8.50;7.80;;;22.20;31.40;;;;;;5012710;28;20411;-77
2023/08/26 11:18:16;;;;;;;9.70;8.90;;;22.20;31.40;;;;;;5012109;28;20196;-75
2023/08/26 11:20:43;;;;;;;8.73;8.13;;;22.20;30.60;;;;;;5027648;28;20559;-75
2023/08/26 11:23:09;;;;;;;8.37;7.67;;;22.20;30.80;;;;;;5012241;28;20923;-76
2023/08/26 11:25:36;;;;;;;8.53;7.30;;;22.20;30.20;;;;;;5012298;28;20984;-76
2023/08/26 11:28:03;;;;;;;9.40;8.80;;;22.20;30.00;;;;;;5011730;28;20914;-75
2023/08/26 11:30:29;;;;;;;13.07;8.60;;;22.20;30.00;;;;;;5012166;28;20468;-76
2023/08/26 11:33:05;;;;;;;9.07;8.23;;;22.20;30.30;;;;;;5012093;28;20409;-76
2023/08/26 11:35:31;;;;;;;10.30;9.27;;;22.20;30.10;;;;;;5012249;28;20804;-76
2023/08/26 11:37:56;;;;;;;8.23;7.60;;;22.20;29.90;;;;;;5011745;28;20487;-76
2023/08/26 11:40:23;;;;;;;8.33;7.73;;;22.10;30.00;;;;;;5012108;28;20216;-75
2023/08/26 11:42:48;;;;;;;9.80;8.80;;;22.10;30.20;;;;;;5011936;28;20180;-75
2023/08/26 11:45:14;;;;;;;9.77;9.17;;;22.20;31.10;;;;;;5012030;28;20412;-75
2023/08/26 11:47:39;;;;;;;9.60;8.90;;;22.10;30.40;;;;;;5011964;28;20201;-76
2023/08/26 11:50:06;;;;;;;9.03;8.30;;;22.10;30.80;;;;;;5011587;28;20254;-75
2023/08/26 11:52:34;;;;;;;8.53;8.13;;;22.10;31.70;;;;;;5011915;28;20184;-75
2023/08/26 11:55:00;;;;;;;11.03;8.20;;;22.00;31.20;;;;;;5011832;28;20416;-73
2023/08/26 11:57:26;;;;;;;9.67;8.97;;;22.00;31.60;;;;;;5011966;28;20523;-76
2023/08/26 11:59:51;;;;;;;8.57;8.17;;;22.00;32.70;;;;;;5011555;28;20491;-75
2023/08/26 12:02:22;;;;;;;9.63;8.97;;;22.00;33.70;;;;;;5011936;28;20173;-75
2023/08/26 12:04:56;;;;;;;9.07;8.67;;;22.00;33.60;;;;;;5011722;28;20174;-74
2023/08/26 12:07:22;;;;;;;9.60;8.83;;;21.90;33.90;;;;;;5011714;28;20548;-75
2023/08/26 12:09:48;;;;;;;10.07;9.37;;;21.90;34.50;;;;;;5011377;28;20522;-74
2023/08/26 12:12:17;;;;;;;8.93;8.23;;;21.90;35.00;;;;;;5012018;28;20527;-75
2023/08/26 12:14:43;;;;;;;7.97;7.57;;;21.90;35.40;;;;;;5012545;28;20185;-75
2023/08/26 12:17:09;;;;;;;8.93;8.43;;;21.90;36.20;;;;;;5012950;28;20455;-76
2023/08/26 12:19:36;;;;;;;9.37;8.53;;;21.90;38.60;;;;;;5011824;28;20174;-76
2023/08/26 12:22:03;;;;;;;9.60;9.00;;;21.90;38.40;;;;;;5011786;28;20585;-76
2023/08/26 12:24:28;;;;;;;8.90;8.33;;;21.90;37.90;;;;;;5011579;28;20412;-76
2023/08/26 12:26:54;;;;;;;9.00;8.30;;;21.80;37.50;;;;;;5011576;28;20447;-76
2023/08/26 12:29:20;;;;;;;9.23;8.63;;;21.90;38.00;;;;;;5011386;28;20595;-76
2023/08/26 12:31:48;;;;;;;8.43;7.93;;;21.80;38.30;;;;;;5011719;28;20679;-75
2023/08/26 12:34:14;;;;;;;9.23;8.43;;;21.80;38.50;;;;;;5011419;28;20640;-74
2023/08/26 12:36:39;;;;;;;9.53;8.80;;;21.80;38.60;;;;;;5011444;28;20432;-75
2023/08/26 12:39:05;;;;;;;9.10;8.53;;;21.80;38.40;;;;;;5012113;28;20178;-76
2023/08/26 12:41:30;;;;;;;11.03;9.10;;;21.70;38.30;;;;;;5015317;28;20609;-76